Time;durP1;ratioP1;P1;durP2;ratioP2;P2;SDS_P1;SDS_P2;PMS_P1;PMS_P2;Temp;Humidity;BMP_temperature;BMP_pressure;BME280_temperature;BME280_humidity;BME280_pressure;Samples;Min_cycle;Max_cycle;Signal;HPM_P1;HPM_P2
2023/01/03 00:01:38;;;;;;;1.53;1.43;;;14.20;69.40;;;;;;5054492;28;20454;-69
2023/01/03 00:04:05;;;;;;;1.50;1.40;;;14.20;69.20;;;;;;5054036;28;20457;-70
2023/01/03 00:06:35;;;;;;;1.50;1.40;;;14.10;69.10;;;;;;5055998;28;20466;-70
2023/01/03 00:09:04;;;;;;;1.60;1.50;;;14.20;69.20;;;;;;5054826;28;20436;-70
2023/01/03 00:14:19;;;;;;;1.97;1.80;;;14.20;69.10;;;;;;5054959;28;20593;-69
2023/01/03 00:16:50;;;;;;;2.00;1.90;;;14.10;69.00;;;;;;5054169;28;20452;-68
2023/01/03 00:19:17;;;;;;;1.50;1.40;;;14.10;69.10;;;;;;5053837;28;20472;-69
2023/01/03 00:21:45;;;;;;;2.07;1.50;;;14.00;69.10;;;;;;5054552;28;20448;-70
2023/01/03 00:24:12;;;;;;;1.40;1.30;;;13.90;69.20;;;;;;5053150;28;20472;-70
2023/01/03 00:26:41;;;;;;;2.53;1.60;;;13.90;69.20;;;;;;5073271;28;20497;-70
2023/01/03 00:29:08;;;;;;;1.80;1.67;;;13.90;69.20;;;;;;5072784;28;20482;-71
2023/01/03 00:31:36;;;;;;;1.70;1.60;;;13.90;69.40;;;;;;5068927;28;20523;-70
2023/01/03 00:34:03;;;;;;;1.50;1.40;;;13.90;69.60;;;;;;5053276;28;20452;-70
2023/01/03 00:36:30;;;;;;;1.50;1.40;;;13.80;69.60;;;;;;5052931;28;20803;-70
2023/01/03 00:38:57;;;;;;;1.80;1.43;;;13.80;69.60;;;;;;5033649;28;20459;-70
2023/01/03 00:41:24;;;;;;;2.20;1.37;;;13.80;69.60;;;;;;5042145;28;20475;-70
2023/01/03 00:43:52;;;;;;;1.47;1.37;;;13.70;69.60;;;;;;5053796;28;20459;-70
2023/01/03 00:46:20;;;;;;;1.60;1.50;;;13.80;69.90;;;;;;5052287;28;20940;-70
2023/01/03 00:48:47;;;;;;;2.07;1.50;;;13.70;70.70;;;;;;5053297;28;20452;-70
2023/01/03 00:51:17;;;;;;;1.70;1.60;;;13.70;70.20;;;;;;5052090;28;20451;-69
2023/01/03 00:53:44;;;;;;;2.30;1.87;;;13.70;70.30;;;;;;5052913;28;20444;-70
2023/01/03 00:56:13;;;;;;;1.80;1.70;;;13.50;70.40;;;;;;5052148;28;20463;-70
2023/01/03 00:58:41;;;;;;;1.87;1.60;;;13.50;70.70;;;;;;5052611;28;20448;-70
2023/01/03 01:01:11;;;;;;;1.60;1.33;;;13.60;70.90;;;;;;5068507;28;20479;-70
2023/01/03 01:03:40;;;;;;;1.67;1.50;;;13.60;70.80;;;;;;5060929;28;20443;-70
2023/01/03 01:06:12;;;;;;;1.60;1.50;;;13.60;70.60;;;;;;5073108;28;20453;-70
2023/01/03 01:08:39;;;;;;;1.90;1.33;;;13.70;70.50;;;;;;5073145;28;20447;-70
2023/01/03 01:11:06;;;;;;;1.80;1.60;;;13.70;70.40;;;;;;5068871;28;20455;-70
2023/01/03 01:13:34;;;;;;;1.60;1.50;;;13.70;70.30;;;;;;5051978;28;20456;-70
2023/01/03 01:16:02;;;;;;;1.80;1.70;;;13.80;70.30;;;;;;5052795;28;20462;-69
2023/01/03 01:18:31;;;;;;;1.73;1.63;;;13.70;70.00;;;;;;5051992;28;20747;-70
2023/01/03 01:21:01;;;;;;;1.63;1.53;;;13.80;69.80;;;;;;5052495;28;20480;-70
2023/01/03 01:23:27;;;;;;;2.13;1.80;;;13.80;69.60;;;;;;5052036;28;20857;-70
2023/01/03 01:25:54;;;;;;;1.80;1.70;;;13.80;69.60;;;;;;5052470;28;20488;-70
2023/01/03 01:28:21;;;;;;;2.27;1.87;;;13.80;69.60;;;;;;5051845;28;20472;-69
2023/01/03 01:30:48;;;;;;;2.53;1.70;;;13.80;69.60;;;;;;5051883;28;20795;-70
2023/01/03 01:33:15;;;;;;;2.80;1.73;;;13.70;69.50;;;;;;5051729;28;20455;-70
2023/01/03 01:35:43;;;;;;;1.13;1.13;;;13.80;69.60;;;;;;5052542;28;20815;-70
2023/01/03 01:38:10;;;;;;;1.67;1.13;;;13.70;69.50;;;;;;5063798;28;20447;-70
2023/01/03 01:40:37;;;;;;;1.60;1.50;;;13.70;69.50;;;;;;5072558;28;20479;-69
2023/01/03 01:46:06;;;;;;;1.50;1.40;;;13.60;69.40;;;;;;5052230;28;20763;-70
2023/01/03 01:48:33;;;;;;;1.67;1.37;;;13.50;69.30;;;;;;5052068;28;20420;-69
2023/01/03 01:51:02;;;;;;;2.40;1.47;;;13.50;69.50;;;;;;5052204;28;20445;-70
2023/01/03 01:53:32;;;;;;;1.70;1.60;;;13.50;69.70;;;;;;5050887;28;20444;-69
2023/01/03 01:56:03;;;;;;;1.57;1.47;;;13.40;69.70;;;;;;5052192;28;20790;-70
2023/01/03 01:58:36;;;;;;;1.90;1.73;;;13.30;69.80;;;;;;5051109;28;20436;-70
2023/01/03 02:01:05;;;;;;;1.60;1.47;;;13.30;70.00;;;;;;5051920;28;20475;-70
2023/01/03 02:03:32;;;;;;;2.40;1.50;;;13.30;70.00;;;;;;5051237;28;20455;-69
2023/01/03 02:06:00;;;;;;;1.83;1.60;;;13.30;70.00;;;;;;5051508;28;20454;-70
2023/01/03 02:08:28;;;;;;;1.60;1.50;;;13.30;70.10;;;;;;5050599;28;20452;-70
2023/01/03 02:11:17;;;;;;;1.60;1.50;;;13.30;70.00;;;;;;5051247;28;20506;-70
2023/01/03 02:13:52;;;;;;;2.87;1.63;;;13.30;70.00;;;;;;5048710;28;20502;-69
2023/01/03 02:16:29;;;;;;;1.57;1.47;;;13.30;70.20;;;;;;5050786;28;20451;-70
2023/01/03 02:19:10;;;;;;;1.53;1.43;;;13.20;70.70;;;;;;5051760;28;20444;-70
2023/01/03 02:22:00;;;;;;;1.83;1.60;;;13.10;70.60;;;;;;5050930;28;20471;-69
2023/01/03 02:25:02;;;;;;;1.47;1.37;;;13.10;71.00;;;;;;5051260;28;20436;-70
2023/01/03 02:28:01;;;;;;;1.50;1.40;;;13.10;71.10;;;;;;5050507;28;21004;-70
2023/01/03 02:30:40;;;;;;;1.47;1.37;;;13.10;71.00;;;;;;5050588;28;20449;-70
2023/01/03 02:34:00;;;;;;;2.40;1.70;;;13.10;70.80;;;;;;5050964;28;20440;-70
2023/01/03 02:36:35;;;;;;;1.40;1.30;;;13.20;70.70;;;;;;5050999;28;20530;-69
2023/01/03 02:39:08;;;;;;;1.50;1.40;;;13.20;70.50;;;;;;5051468;28;20464;-69
2023/01/03 02:41:41;;;;;;;1.40;1.30;;;13.20;70.30;;;;;;5050754;28;20479;-70
2023/01/03 02:44:16;;;;;;;1.53;1.43;;;13.20;70.10;;;;;;5051419;28;20433;-69
2023/01/03 02:46:51;;;;;;;1.87;1.57;;;13.20;70.00;;;;;;5051374;28;20523;-70
2023/01/03 02:49:22;;;;;;;2.70;1.50;;;13.20;69.90;;;;;;5049515;28;20444;-70
2023/01/03 02:51:53;;;;;;;1.83;1.53;;;13.20;69.80;;;;;;5051508;28;20432;-69
2023/01/03 02:54:30;;;;;;;3.63;1.40;;;13.20;69.80;;;;;;5050498;28;20448;-70
2023/01/03 02:57:02;;;;;;;2.00;1.60;;;13.10;69.80;;;;;;5051497;28;20459;-70
2023/01/03 02:59:35;;;;;;;2.10;1.50;;;13.10;69.70;;;;;;5050442;28;20444;-69
2023/01/03 03:02:06;;;;;;;3.90;1.80;;;13.10;69.50;;;;;;5050965;28;20464;-70
2023/01/03 03:04:35;;;;;;;1.70;1.57;;;13.10;69.50;;;;;;5050469;28;20897;-70
2023/01/03 03:07:08;;;;;;;3.33;1.60;;;13.10;69.70;;;;;;5051352;28;20451;-70
2023/01/03 03:13:11;;;;;;;2.03;1.53;;;13.10;69.60;;;;;;5050274;28;20441;-70
2023/01/03 03:15:12;;;;;;;2.20;1.63;;;13.10;69.50;;;;;;5050833;28;20442;-70
2023/01/03 03:17:42;;;;;;;1.60;1.50;;;13.10;69.70;;;;;;5050420;28;20448;-70
2023/01/03 03:25:53;;;;;;;1.73;1.43;;;12.90;69.40;;;;;;5055180;28;20463;-70
2023/01/03 03:28:33;;;;;;;1.70;1.53;;;12.90;69.60;;;;;;5054363;28;20471;-69
2023/01/03 03:31:03;;;;;;;1.50;1.40;;;12.80;69.50;;;;;;5054815;28;20837;-70
2023/01/03 03:33:35;;;;;;;1.70;1.60;;;12.80;69.50;;;;;;5054220;28;20428;-69
2023/01/03 03:36:08;;;;;;;2.80;1.90;;;12.80;69.80;;;;;;5054658;28;20436;-69
2023/01/03 03:38:40;;;;;;;1.33;1.27;;;12.80;70.00;;;;;;5052822;28;20425;-70
2023/01/03 03:47:10;;;;;;;1.40;1.30;;;12.70;69.70;;;;;;5054226;28;20436;-70
2023/01/03 03:49:41;;;;;;;1.60;1.30;;;12.70;68.80;;;;;;5054518;28;20436;-69
2023/01/03 03:52:12;;;;;;;1.60;1.50;;;12.70;68.70;;;;;;5054464;28;20494;-70
2023/01/03 03:54:42;;;;;;;1.73;1.63;;;12.60;68.80;;;;;;5053561;28;20452;-70
2023/01/03 03:57:15;;;;;;;1.80;1.70;;;12.60;69.00;;;;;;5018931;28;20453;-69
2023/01/03 03:59:45;;;;;;;1.47;1.37;;;12.60;69.00;;;;;;5053795;28;20436;-70
2023/01/03 04:02:14;;;;;;;2.73;1.40;;;12.50;68.90;;;;;;5054293;28;20463;-70
2023/01/03 04:04:46;;;;;;;1.23;1.13;;;12.50;69.00;;;;;;5053469;28;20456;-69
2023/01/03 04:07:13;;;;;;;1.53;1.43;;;12.50;68.60;;;;;;5053777;28;20530;-70
2023/01/03 04:09:40;;;;;;;1.67;1.27;;;12.40;68.30;;;;;;5053444;28;20448;-70
2023/01/03 04:12:08;;;;;;;3.13;1.53;;;12.40;68.50;;;;;;5053553;28;20440;-69
2023/01/03 04:14:34;;;;;;;1.40;1.30;;;12.40;68.70;;;;;;5053270;28;21046;-70
2023/01/03 04:17:01;;;;;;;1.50;1.40;;;12.40;68.60;;;;;;5054188;28;20448;-70
2023/01/03 04:19:28;;;;;;;2.00;1.80;;;12.30;68.80;;;;;;5052910;28;20444;-70
2023/01/03 04:21:56;;;;;;;1.60;1.50;;;12.30;69.00;;;;;;5053516;28;20487;-70
2023/01/03 04:24:23;;;;;;;1.50;1.40;;;12.30;68.60;;;;;;5053608;28;20444;-70
2023/01/03 04:26:50;;;;;;;3.67;1.63;;;12.20;68.20;;;;;;5052806;28;20491;-70
2023/01/03 04:29:17;;;;;;;1.83;1.40;;;12.20;68.10;;;;;;5053607;28;20970;-70
2023/01/03 04:31:46;;;;;;;1.73;1.63;;;12.20;68.00;;;;;;5052565;28;20774;-70
2023/01/03 04:34:13;;;;;;;1.90;1.70;;;12.20;68.20;;;;;;5053341;28;20540;-69
2023/01/03 04:36:40;;;;;;;1.60;1.50;;;12.10;67.90;;;;;;5052803;28;20725;-69
2023/01/03 04:39:08;;;;;;;1.33;1.27;;;12.00;67.80;;;;;;5053595;28;20448;-70
2023/01/03 04:41:35;;;;;;;2.40;1.37;;;12.00;67.70;;;;;;5052634;28;20834;-70
2023/01/03 04:44:01;;;;;;;1.30;1.20;;;12.00;67.60;;;;;;5053119;28;20464;-70
2023/01/03 04:46:28;;;;;;;1.37;1.30;;;11.90;67.50;;;;;;5052767;28;20448;-72
2023/01/03 04:48:56;;;;;;;1.60;1.50;;;11.90;67.20;;;;;;5053053;28;20238;-69
2023/01/03 04:51:23;;;;;;;3.53;1.90;;;11.80;67.40;;;;;;5052594;28;20451;-69
2023/01/03 04:53:50;;;;;;;1.90;1.80;;;11.80;68.30;;;;;;5053385;28;20449;-69
2023/01/03 04:56:22;;;;;;;2.23;2.00;;;11.70;68.50;;;;;;5052685;28;20471;-69
2023/01/03 04:58:49;;;;;;;1.97;1.80;;;11.70;68.30;;;;;;5052936;28;20951;-69
2023/01/03 05:01:16;;;;;;;1.87;1.67;;;11.70;68.00;;;;;;5053206;28;20514;-69
2023/01/03 05:03:43;;;;;;;1.73;1.50;;;11.70;67.90;;;;;;5052162;28;20448;-69
2023/01/03 05:06:12;;;;;;;1.87;1.77;;;11.70;67.90;;;;;;5052702;28;20452;-69
2023/01/03 05:08:39;;;;;;;2.70;2.17;;;11.70;67.70;;;;;;5051942;28;20448;-69
2023/01/03 05:11:06;;;;;;;2.60;2.33;;;11.70;67.50;;;;;;5052938;28;20783;-69
2023/01/03 05:13:34;;;;;;;4.00;2.37;;;11.60;67.40;;;;;;5052253;28;20471;-69
2023/01/03 05:16:05;;;;;;;2.20;1.80;;;11.60;67.60;;;;;;5052778;28;20452;-69
2023/01/03 05:18:32;;;;;;;2.63;2.00;;;11.60;68.10;;;;;;5052059;28;20471;-69
2023/01/03 05:26:33;;;;;;;2.40;2.20;;;11.40;68.60;;;;;;5051687;28;20487;-69
2023/01/03 05:29:02;;;;;;;3.07;2.30;;;11.40;68.90;;;;;;5052546;28;20453;-69
2023/01/03 05:31:28;;;;;;;2.27;1.90;;;11.40;68.90;;;;;;5051719;28;20440;-69
2023/01/03 05:33:55;;;;;;;2.20;2.00;;;11.40;68.70;;;;;;5052061;28;20458;-69
2023/01/03 05:36:22;;;;;;;2.30;2.10;;;11.40;68.50;;;;;;5051692;28;20487;-68
2023/01/03 05:38:49;;;;;;;2.33;2.13;;;11.40;68.00;;;;;;5052234;28;20447;-69
2023/01/03 05:41:58;;;;;;;2.37;2.13;;;11.40;67.90;;;;;;5052028;28;20476;-69
2023/01/03 05:44:06;;;;;;;2.63;2.43;;;11.40;68.00;;;;;;5050876;28;20578;-69
2023/01/03 05:46:33;;;;;;;3.80;2.80;;;11.40;68.00;;;;;;5051726;28;20452;-69
2023/01/03 05:48:59;;;;;;;3.83;3.43;;;11.30;67.80;;;;;;5051035;28;20454;-68
2023/01/03 05:51:26;;;;;;;3.20;2.90;;;11.30;68.00;;;;;;5051479;28;20439;-68
2023/01/03 05:53:53;;;;;;;3.23;2.93;;;11.30;67.90;;;;;;5051647;28;20447;-68
2023/01/03 05:56:20;;;;;;;3.33;3.03;;;11.40;68.20;;;;;;5051937;28;20471;-69
2023/01/03 05:58:48;;;;;;;2.80;2.60;;;11.30;68.20;;;;;;5063065;28;20456;-69
2023/01/03 06:01:16;;;;;;;3.00;2.70;;;11.30;68.30;;;;;;5071493;28;20537;-69
2023/01/03 06:03:44;;;;;;;4.50;3.50;;;11.30;68.30;;;;;;5050999;28;20447;-69
2023/01/03 06:06:13;;;;;;;2.80;2.60;;;11.20;68.20;;;;;;5051859;28;20876;-68
2023/01/03 06:08:40;;;;;;;3.00;2.70;;;11.20;68.40;;;;;;5050999;28;20448;-68
2023/01/03 06:11:07;;;;;;;3.23;2.60;;;11.20;68.40;;;;;;5051494;28;20920;-69
2023/01/03 06:13:34;;;;;;;3.10;2.90;;;11.10;68.40;;;;;;5051158;28;20444;-69
2023/01/03 06:18:51;;;;;;;3.73;2.77;;;11.10;68.90;;;;;;5052448;28;20436;-69
2023/01/03 06:21:18;;;;;;;3.20;2.90;;;11.00;68.60;;;;;;5071765;28;20489;-67
2023/01/03 06:23:46;;;;;;;3.40;3.07;;;11.00;68.70;;;;;;5070817;28;20779;-69
2023/01/03 06:26:13;;;;;;;3.73;2.90;;;11.00;68.60;;;;;;5060859;28;20488;-69
2023/01/03 06:28:41;;;;;;;3.23;3.00;;;11.00;68.60;;;;;;5050702;28;20559;-69
2023/01/03 06:31:08;;;;;;;3.10;2.80;;;11.00;68.50;;;;;;5051471;28;20444;-69
2023/01/03 06:33:35;;;;;;;3.33;3.03;;;10.90;68.60;;;;;;5050341;28;20463;-69
2023/01/03 06:36:06;;;;;;;3.30;3.00;;;10.90;68.80;;;;;;5051477;28;20804;-68
2023/01/03 06:38:33;;;;;;;2.90;2.60;;;10.90;69.00;;;;;;5050604;28;20454;-69
2023/01/03 06:41:00;;;;;;;3.10;2.90;;;10.90;68.90;;;;;;5052332;28;20444;-68
2023/01/03 06:43:27;;;;;;;3.20;2.90;;;10.90;68.80;;;;;;5050816;28;20448;-69
2023/01/03 06:54:18;;;;;;;3.17;2.87;;;10.80;68.90;;;;;;5050449;28;20427;-69
2023/01/03 06:56:45;;;;;;;3.30;2.97;;;10.70;68.80;;;;;;5055006;28;20455;-69
2023/01/03 06:59:12;;;;;;;3.07;2.70;;;10.70;68.70;;;;;;5055569;28;20454;-67
2023/01/03 07:01:39;;;;;;;3.43;3.00;;;10.70;68.90;;;;;;5054521;28;20847;-68
2023/01/03 07:04:06;;;;;;;4.17;3.47;;;10.70;69.10;;;;;;5054846;28;20449;-69
2023/01/03 07:06:34;;;;;;;3.70;3.27;;;10.70;69.20;;;;;;5054581;28;20440;-67
2023/01/03 07:09:01;;;;;;;5.53;3.30;;;10.70;69.40;;;;;;5054741;28;20459;-69
2023/01/03 07:11:28;;;;;;;3.90;2.90;;;10.70;69.20;;;;;;5054872;28;20444;-69
2023/01/03 07:14:01;;;;;;;3.50;2.80;;;10.70;69.00;;;;;;5054929;28;20966;-68
2023/01/03 07:16:31;;;;;;;3.90;3.30;;;10.70;68.70;;;;;;5054886;28;20444;-68
2023/01/03 07:18:58;;;;;;;5.10;3.20;;;10.70;68.50;;;;;;5055131;28;20499;-69
2023/01/03 07:21:27;;;;;;;3.97;3.10;;;10.70;68.30;;;;;;5054998;28;20480;-68
2023/01/03 07:23:56;;;;;;;5.20;3.30;;;10.70;68.40;;;;;;5055354;28;20474;-69
2023/01/03 07:26:25;;;;;;;3.10;2.80;;;10.70;68.20;;;;;;5054441;28;21018;-68
2023/01/03 07:28:52;;;;;;;7.53;3.13;;;10.70;68.30;;;;;;5054076;28;20451;-69
2023/01/03 07:31:19;;;;;;;3.80;2.80;;;10.70;68.60;;;;;;5054968;28;20813;-68
2023/01/03 07:33:46;;;;;;;3.37;3.00;;;10.70;68.40;;;;;;5054498;28;20448;-68
2023/01/03 07:36:15;;;;;;;4.07;3.13;;;10.70;68.30;;;;;;5054028;28;20454;-67
2023/01/03 07:38:44;;;;;;;3.47;3.17;;;10.80;68.40;;;;;;5053801;28;20452;-68
2023/01/03 07:41:13;;;;;;;3.53;3.00;;;10.70;68.10;;;;;;5054452;28;20454;-69
2023/01/03 07:43:41;;;;;;;3.03;2.73;;;10.70;68.70;;;;;;5054165;28;20451;-69
2023/01/03 07:46:10;;;;;;;3.57;2.90;;;10.70;68.00;;;;;;5054629;28;20456;-67
2023/01/03 07:48:38;;;;;;;3.97;3.07;;;10.70;69.00;;;;;;5053978;28;20452;-69
2023/01/03 07:51:05;;;;;;;3.00;2.70;;;10.70;68.30;;;;;;5054799;28;20448;-68
2023/01/03 07:53:33;;;;;;;3.07;2.80;;;10.70;67.90;;;;;;5053827;28;21016;-69
2023/01/03 07:56:05;;;;;;;3.60;3.00;;;10.70;67.90;;;;;;5054038;28;20950;-67
2023/01/03 07:58:33;;;;;;;4.33;2.93;;;10.70;67.90;;;;;;5053402;28;20861;-70
2023/01/03 08:01:05;;;;;;;5.10;3.47;;;10.70;67.90;;;;;;5054254;28;20448;-68
2023/01/03 08:03:32;;;;;;;3.00;2.70;;;10.70;68.00;;;;;;5053496;28;20567;-68
2023/01/03 08:06:03;;;;;;;3.23;2.90;;;10.70;67.80;;;;;;5053910;28;20452;-69
2023/01/03 08:08:30;;;;;;;4.83;3.07;;;10.70;67.90;;;;;;5053027;28;20474;-70
2023/01/03 08:13:43;;;;;;;3.10;2.80;;;10.70;68.00;;;;;;5053310;28;20420;-68
2023/01/03 08:16:12;;;;;;;3.40;3.10;;;10.70;68.20;;;;;;5054221;28;20471;-69
2023/01/03 08:18:41;;;;;;;3.60;3.27;;;10.80;68.40;;;;;;5052812;28;20531;-69
2023/01/03 08:21:09;;;;;;;3.30;2.97;;;10.70;68.10;;;;;;5053552;28;20458;-71
2023/01/03 08:23:37;;;;;;;3.10;2.80;;;10.70;68.00;;;;;;5053618;28;20479;-68
2023/01/03 08:26:06;;;;;;;3.03;2.73;;;10.70;68.00;;;;;;5053359;28;20490;-69
2023/01/03 08:28:33;;;;;;;3.20;2.80;;;10.70;68.00;;;;;;5052628;28;20552;-70
2023/01/03 08:31:06;;;;;;;3.00;2.80;;;10.70;67.90;;;;;;5053805;28;20509;-69
2023/01/03 08:33:38;;;;;;;2.87;2.50;;;10.70;69.00;;;;;;5053291;28;20429;-69
2023/01/03 08:39:06;;;;;;;2.50;2.20;;;10.80;68.30;;;;;;5082775;27;1330535;-68
2023/01/03 08:41:45;;;;;;;3.20;2.33;;;10.80;68.90;;;;;;5129462;28;20281;-68
2023/01/03 08:44:13;;;;;;;3.83;2.97;;;10.80;69.10;;;;;;5128476;28;20425;-68
2023/01/03 08:46:45;;;;;;;4.10;2.63;;;10.90;70.20;;;;;;5109487;28;20454;-68
2023/01/03 08:49:12;;;;;;;7.57;5.50;;;10.90;69.50;;;;;;5109257;28;20914;-68
2023/01/03 08:51:39;;;;;;;21.03;15.07;;;11.00;69.60;;;;;;5108584;28;20437;-69
2023/01/03 08:54:08;;;;;;;11.10;8.80;;;11.10;69.70;;;;;;5128501;28;20448;-69
2023/01/03 08:56:36;;;;;;;6.43;5.27;;;11.10;70.00;;;;;;5129204;28;20849;-70
2023/01/03 08:59:03;;;;;;;6.10;4.80;;;11.10;70.30;;;;;;5129279;28;20901;-68
2023/01/03 09:01:30;;;;;;;4.83;4.43;;;11.20;69.80;;;;;;5129544;28;20823;-69
2023/01/03 09:03:57;;;;;;;6.13;4.40;;;11.20;69.90;;;;;;5128375;28;20441;-69
2023/01/03 09:06:24;;;;;;;5.20;4.67;;;11.20;70.00;;;;;;5128167;28;20484;-69
2023/01/03 09:08:50;;;;;;;4.93;4.43;;;11.30;70.10;;;;;;5129075;28;20440;-69
2023/01/03 09:11:19;;;;;;;12.50;9.17;;;11.30;70.00;;;;;;5129420;28;20531;-69
2023/01/03 09:13:45;;;;;;;11.30;8.67;;;11.30;69.70;;;;;;5128394;28;20524;-69
2023/01/03 09:16:15;;;;;;;11.20;8.27;;;11.30;69.60;;;;;;5111235;28;20457;-69
2023/01/03 09:18:42;;;;;;;9.63;6.43;;;11.40;69.70;;;;;;5115949;28;20487;-68
2023/01/03 09:21:09;;;;;;;7.07;5.43;;;11.40;69.60;;;;;;5128551;28;21000;-70
2023/01/03 09:23:37;;;;;;;5.63;4.70;;;11.40;69.80;;;;;;5128471;28;20501;-70
2023/01/03 09:26:04;;;;;;;6.03;4.83;;;11.40;69.90;;;;;;5128091;28;20801;-69
2023/01/03 09:28:33;;;;;;;7.33;5.40;;;11.50;70.10;;;;;;5129072;28;20448;-69
2023/01/03 09:31:00;;;;;;;6.87;5.17;;;11.50;70.20;;;;;;5128422;28;20444;-69
2023/01/03 09:33:27;;;;;;;5.90;5.30;;;11.60;70.40;;;;;;5129061;28;20489;-69
2023/01/03 09:35:54;;;;;;;4.97;4.43;;;11.80;70.70;;;;;;5123978;28;20858;-69
2023/01/03 09:38:22;;;;;;;4.30;3.90;;;12.00;70.90;;;;;;5109632;28;20581;-68
2023/01/03 09:40:58;;;;;;;6.03;4.40;;;12.20;70.60;;;;;;5118819;28;20476;-68
2023/01/03 09:43:30;;;;;;;5.40;3.60;;;12.40;70.50;;;;;;5113685;28;20442;-70
2023/01/03 09:46:00;;;;;;;3.77;3.40;;;12.60;70.00;;;;;;5124270;28;20465;-70
2023/01/03 09:48:32;;;;;;;4.20;3.53;;;12.80;69.90;;;;;;5114979;27;20446;-69
2023/01/03 09:50:59;;;;;;;8.27;6.37;;;13.00;69.60;;;;;;5117057;27;20448;-69
2023/01/03 10:05:23;;;;;;;5.20;3.47;;;14.00;68.40;;;;;;5099217;28;20444;-70
2023/01/03 10:08:12;;;;;;;5.03;3.63;;;14.20;67.50;;;;;;5094216;28;20968;-70
2023/01/03 10:10:48;;;;;;;3.77;2.93;;;14.40;67.20;;;;;;5093557;28;20845;-71
2023/01/03 10:13:25;;;;;;;3.50;2.90;;;14.50;66.80;;;;;;5094069;28;20787;-72
2023/01/03 10:16:01;;;;;;;4.40;2.90;;;14.70;66.60;;;;;;5093625;28;20844;-71
2023/01/03 10:18:56;;;;;;;2.90;2.47;;;14.80;66.40;;;;;;5093971;28;20564;-70
2023/01/03 10:21:31;;;;;;;2.80;2.60;;;14.90;65.70;;;;;;5093358;28;20458;-70
2023/01/03 10:24:00;;;;;;;4.57;2.50;;;15.10;65.40;;;;;;5092823;28;20430;-70
2023/01/03 10:26:32;;;;;;;2.60;2.40;;;15.20;65.00;;;;;;5092762;28;20482;-70
2023/01/03 10:29:01;;;;;;;3.53;2.70;;;15.30;64.40;;;;;;5092882;28;20907;-71
2023/01/03 10:31:40;;;;;;;3.33;2.73;;;15.40;64.50;;;;;;5093081;28;20447;-72
2023/01/03 10:34:11;;;;;;;3.00;2.70;;;15.60;64.20;;;;;;5065960;28;20479;-69
2023/01/03 10:36:37;;;;;;;3.70;2.60;;;15.70;64.20;;;;;;5092076;28;20477;-70
2023/01/03 10:39:07;;;;;;;3.43;2.90;;;15.80;63.50;;;;;;5093394;28;20504;-69
2023/01/03 10:41:43;;;;;;;2.73;2.47;;;15.90;63.10;;;;;;5106591;27;20544;-70
2023/01/03 10:44:23;;;;;;;4.40;2.90;;;15.90;63.10;;;;;;5110001;27;20452;-69
2023/01/03 10:46:53;;;;;;;4.43;2.30;;;16.00;63.10;;;;;;5103472;28;20446;-70
2023/01/03 10:49:23;;;;;;;2.53;2.10;;;16.10;62.80;;;;;;5095466;28;20458;-69
2023/01/03 10:51:55;;;;;;;3.97;2.90;;;16.10;61.60;;;;;;5097514;28;20454;-70
2023/01/03 10:54:28;;;;;;;4.50;2.93;;;16.10;61.50;;;;;;5104544;28;20439;-70
2023/01/03 10:56:55;;;;;;;3.30;2.50;;;16.10;61.50;;;;;;5099789;28;20450;-70
2023/01/03 10:59:25;;;;;;;2.47;2.27;;;16.20;62.20;;;;;;5102557;28;20575;-68
2023/01/03 11:02:15;;;;;;;2.50;2.10;;;16.20;61.60;;;;;;5091220;28;20450;-70
2023/01/03 11:04:44;;;;;;;2.33;2.07;;;16.30;61.40;;;;;;5104141;28;20473;-69
2023/01/03 11:07:14;;;;;;;4.83;2.37;;;16.40;61.10;;;;;;5095509;28;20541;-70
2023/01/03 11:09:49;;;;;;;2.83;2.53;;;16.50;61.10;;;;;;5091578;28;20437;-69
2023/01/03 11:12:29;;;;;;;2.63;2.20;;;16.50;60.80;;;;;;5100603;28;20455;-71
2023/01/03 11:14:59;;;;;;;2.30;2.00;;;16.50;60.30;;;;;;5135063;28;20528;-70
2023/01/03 11:17:28;;;;;;;1.97;1.70;;;16.50;60.50;;;;;;5138008;28;20418;-70
2023/01/03 11:19:57;;;;;;;2.37;2.00;;;16.60;60.30;;;;;;5119166;28;20434;-70
2023/01/03 11:22:36;;;;;;;1.90;1.80;;;16.50;60.40;;;;;;5128929;28;20443;-69
2023/01/03 11:25:19;;;;;;;2.20;1.80;;;16.60;60.30;;;;;;5117416;28;20427;-69
2023/01/03 11:28:07;;;;;;;1.63;1.53;;;16.60;59.80;;;;;;5116487;28;20443;-69
2023/01/03 11:30:40;;;;;;;2.37;1.80;;;16.70;59.70;;;;;;5117059;28;20522;-70
2023/01/03 11:33:22;;;;;;;2.17;1.87;;;16.80;59.40;;;;;;5093610;28;20542;-70
2023/01/03 11:36:06;;;;;;;2.47;1.80;;;17.00;59.60;;;;;;5091485;28;20487;-69
2023/01/03 11:38:55;;;;;;;2.47;1.90;;;17.20;59.40;;;;;;5089986;28;20490;-69
2023/01/03 11:41:53;;;;;;;2.13;1.60;;;17.50;58.50;;;;;;5091869;28;20458;-69
2023/01/03 11:45:04;;;;;;;1.67;1.57;;;17.60;57.90;;;;;;5099416;28;20891;-70
2023/01/03 11:47:41;;;;;;;1.63;1.53;;;17.70;57.50;;;;;;5049351;28;20445;-69
2023/01/03 11:50:27;;;;;;;2.60;1.50;;;17.90;57.80;;;;;;5119022;28;20775;-70
2023/01/03 11:53:03;;;;;;;3.23;1.53;;;18.20;57.60;;;;;;5103999;28;20536;-71
2023/01/03 11:55:54;;;;;;;2.20;1.63;;;18.40;56.80;;;;;;5110253;28;20433;-70
2023/01/03 11:58:48;;;;;;;1.83;1.70;;;18.70;56.50;;;;;;5112043;28;20977;-69
2023/01/03 12:01:24;;;;;;;1.87;1.50;;;18.80;54.90;;;;;;5109664;28;20194;-70
2023/01/03 12:04:19;;;;;;;1.70;1.60;;;19.10;56.00;;;;;;5104630;28;20549;-70
2023/01/03 12:06:54;;;;;;;2.73;1.60;;;19.30;54.70;;;;;;5109430;28;20460;-70
2023/01/03 12:09:27;;;;;;;1.60;1.50;;;19.40;53.90;;;;;;5112048;28;20671;-70
2023/01/03 12:12:13;;;;;;;2.80;1.40;;;19.50;53.10;;;;;;5111084;28;20429;-70
2023/01/03 12:14:46;;;;;;;1.47;1.27;;;19.60;53.20;;;;;;5111118;28;20521;-69
2023/01/03 12:17:17;;;;;;;2.43;1.50;;;19.80;52.20;;;;;;5107811;28;20195;-68
2023/01/03 12:19:50;;;;;;;2.27;1.27;;;20.20;52.10;;;;;;5095957;28;20223;-70
2023/01/03 12:22:23;;;;;;;2.30;1.37;;;20.70;51.10;;;;;;5090747;28;20191;-70
2023/01/03 12:24:55;;;;;;;1.83;1.07;;;21.30;50.60;;;;;;5090859;28;20582;-70
2023/01/03 12:27:28;;;;;;;1.63;1.47;;;21.90;48.90;;;;;;5092277;28;20188;-72
2023/01/03 12:30:00;;;;;;;1.77;1.23;;;22.40;48.30;;;;;;5111455;28;20270;-72
2023/01/03 12:32:34;;;;;;;1.33;1.00;;;23.00;48.30;;;;;;5112238;28;20563;-72
2023/01/03 12:35:15;;;;;;;1.70;1.30;;;23.80;46.70;;;;;;5110967;28;20187;-72
2023/01/03 12:37:45;;;;;;;2.63;1.20;;;25.00;45.50;;;;;;5108339;28;20607;-73
2023/01/03 12:40:21;;;;;;;1.50;1.37;;;26.40;44.80;;;;;;5081763;28;20609;-73
2023/01/03 12:42:57;;;;;;;1.60;1.20;;;27.80;41.50;;;;;;5110561;28;20200;-72
2023/01/03 12:45:47;;;;;;;1.43;1.33;;;28.70;39.70;;;;;;5111464;28;20197;-72
2023/01/03 12:48:35;;;;;;;1.27;1.00;;;30.00;36.60;;;;;;5111644;28;20184;-72
2023/01/03 12:51:02;;;;;;;2.07;1.47;;;31.60;34.60;;;;;;5110519;28;20574;-72
2023/01/03 12:53:36;;;;;;;2.13;1.50;;;32.90;35.00;;;;;;5102109;28;20204;-72
2023/01/03 12:56:24;;;;;;;1.73;1.43;;;33.90;32.80;;;;;;5111408;28;20284;-72
2023/01/03 12:59:05;;;;;;;1.50;1.40;;;34.80;29.80;;;;;;5110472;28;20677;-72
2023/01/03 13:01:39;;;;;;;1.07;1.07;;;35.90;29.40;;;;;;5111558;28;20280;-72
2023/01/03 13:04:13;;;;;;;2.17;1.30;;;36.90;28.70;;;;;;5109376;28;20526;-72
2023/01/03 13:06:46;;;;;;;1.30;1.20;;;37.50;27.40;;;;;;5110709;28;20187;-72
2023/01/03 13:09:25;;;;;;;1.80;1.33;;;37.20;26.80;;;;;;5106118;28;20197;-73
2023/01/03 13:11:57;;;;;;;2.40;1.40;;;36.80;26.90;;;;;;5110749;28;20195;-73
2023/01/03 13:14:25;;;;;;;1.50;1.27;;;37.10;27.10;;;;;;5097425;28;20208;-73
2023/01/03 13:16:56;;;;;;;1.90;1.20;;;37.80;26.90;;;;;;5092457;28;20212;-72
2023/01/03 13:22:52;;;;;;;2.67;1.23;;;38.90;24.40;;;;;;5090762;28;20289;-71
2023/01/03 13:25:38;;;;;;;2.03;1.43;;;39.60;24.30;;;;;;5093759;28;20209;-72
2023/01/03 13:28:29;;;;;;;1.60;1.30;;;39.50;23.70;;;;;;5095524;28;20532;-72
2023/01/03 13:31:32;;;;;;;1.40;1.23;;;39.30;24.20;;;;;;5088204;28;20210;-72
2023/01/03 13:34:43;;;;;;;1.53;1.17;;;39.10;23.50;;;;;;5094214;28;20603;-73
2023/01/03 13:37:25;;;;;;;1.63;1.03;;;37.40;24.10;;;;;;5094240;28;20238;-70
2023/01/03 13:40:32;;;;;;;1.30;1.10;;;35.40;25.80;;;;;;5094017;28;20267;-70
2023/01/03 13:43:11;;;;;;;1.43;1.13;;;33.40;27.30;;;;;;5094141;28;20192;-71
2023/01/03 13:45:59;;;;;;;1.07;0.97;;;31.40;28.20;;;;;;5092041;28;20225;-71
2023/01/03 13:48:33;;;;;;;2.53;1.83;;;29.40;29.50;;;;;;5097192;28;20199;-69
2023/01/03 13:51:38;;;;;;;4.23;3.60;;;27.80;31.20;;;;;;5092998;28;20318;-72
2023/01/03 13:54:21;;;;;;;1.77;1.40;;;26.20;33.30;;;;;;5089344;28;20292;-72
2023/01/03 13:57:01;;;;;;;2.00;1.20;;;25.10;35.10;;;;;;5091645;28;20196;-72
2023/01/03 13:59:34;;;;;;;1.00;0.87;;;25.00;35.60;;;;;;5094703;28;20216;-72
2023/01/03 14:02:54;;;;;;;3.07;1.03;;;24.50;36.10;;;;;;5093405;28;20247;-71
2023/01/03 14:05:56;;;;;;;1.50;0.97;;;23.10;37.70;;;;;;5067706;28;20694;-71
2023/01/03 14:08:36;;;;;;;2.10;1.00;;;22.00;39.00;;;;;;5058168;28;20215;-67
2023/01/03 14:11:28;;;;;;;2.10;1.20;;;21.60;40.10;;;;;;5098802;28;20306;-69